sensor_id;sensor_type;location;lat;lon;timestamp;P1;durP1;ratioP1;P2;durP2;ratioP2
33413;SDS011;60055;41.884;12.534;2023-01-09T00:00:35;27.02;;;10.30;;
33413;SDS011;60055;41.884;12.534;2023-01-09T00:03:01;32.55;;;11.18;;
33413;SDS011;60055;41.884;12.534;2023-01-09T00:05:27;26.70;;;10.85;;
33413;SDS011;60055;41.884;12.534;2023-01-09T00:07:52;28.90;;;10.32;;
33413;SDS011;60055;41.884;12.534;2023-01-09T00:10:18;29.48;;;10.65;;
33413;SDS011;60055;41.884;12.534;2023-01-09T00:12:44;32.33;;;11.25;;
33413;SDS011;60055;41.884;12.534;2023-01-09T00:15:10;30.27;;;11.07;;
33413;SDS011;60055;41.884;12.534;2023-01-09T00:17:36;31.65;;;11.00;;
33413;SDS011;60055;41.884;12.534;2023-01-09T00:20:02;34.03;;;11.05;;
33413;SDS011;60055;41.884;12.534;2023-01-09T00:22:28;29.58;;;10.45;;
33413;SDS011;60055;41.884;12.534;2023-01-09T00:24:55;32.47;;;10.85;;
33413;SDS011;60055;41.884;12.534;2023-01-09T00:27:21;35.80;;;10.70;;
33413;SDS011;60055;41.884;12.534;2023-01-09T00:29:47;31.90;;;10.20;;
33413;SDS011;60055;41.884;12.534;2023-01-09T00:32:13;34.85;;;9.98;;
33413;SDS011;60055;41.884;12.534;2023-01-09T00:34:40;27.80;;;9.93;;
33413;SDS011;60055;41.884;12.534;2023-01-09T00:37:07;36.97;;;10.15;;
33413;SDS011;60055;41.884;12.534;2023-01-09T00:39:38;40.95;;;10.10;;
33413;SDS011;60055;41.884;12.534;2023-01-09T00:42:05;36.22;;;10.32;;
33413;SDS011;60055;41.884;12.534;2023-01-09T00:44:35;37.85;;;9.68;;
33413;SDS011;60055;41.884;12.534;2023-01-09T00:47:25;27.95;;;8.82;;
33413;SDS011;60055;41.884;12.534;2023-01-09T00:49:58;29.47;;;9.23;;
33413;SDS011;60055;41.884;12.534;2023-01-09T00:52:28;34.58;;;9.32;;
33413;SDS011;60055;41.884;12.534;2023-01-09T00:54:57;43.80;;;9.30;;
33413;SDS011;60055;41.884;12.534;2023-01-09T00:57:24;31.58;;;9.30;;
33413;SDS011;60055;41.884;12.534;2023-01-09T00:59:50;28.90;;;9.27;;
33413;SDS011;60055;41.884;12.534;2023-01-09T01:02:17;33.75;;;9.57;;
33413;SDS011;60055;41.884;12.534;2023-01-09T01:04:43;35.58;;;9.57;;
33413;SDS011;60055;41.884;12.534;2023-01-09T01:07:28;38.05;;;8.80;;
33413;SDS011;60055;41.884;12.534;2023-01-09T01:10:08;33.83;;;8.80;;
33413;SDS011;60055;41.884;12.534;2023-01-09T01:12:37;38.35;;;8.77;;
33413;SDS011;60055;41.884;12.534;2023-01-09T01:15:04;30.98;;;8.25;;
33413;SDS011;60055;41.884;12.534;2023-01-09T01:17:34;32.53;;;7.85;;
33413;SDS011;60055;41.884;12.534;2023-01-09T01:20:03;35.75;;;7.55;;
33413;SDS011;60055;41.884;12.534;2023-01-09T01:22:30;27.20;;;7.82;;
33413;SDS011;60055;41.884;12.534;2023-01-09T01:24:56;33.20;;;7.65;;
33413;SDS011;60055;41.884;12.534;2023-01-09T01:27:22;34.17;;;7.78;;
33413;SDS011;60055;41.884;12.534;2023-01-09T01:29:49;29.30;;;7.32;;
33413;SDS011;60055;41.884;12.534;2023-01-09T01:32:15;32.63;;;7.55;;
33413;SDS011;60055;41.884;12.534;2023-01-09T01:34:40;31.38;;;7.03;;
33413;SDS011;60055;41.884;12.534;2023-01-09T01:37:06;29.55;;;7.80;;
33413;SDS011;60055;41.884;12.534;2023-01-09T01:39:32;29.80;;;7.13;;
33413;SDS011;60055;41.884;12.534;2023-01-09T01:41:57;25.05;;;6.38;;
33413;SDS011;60055;41.884;12.534;2023-01-09T01:47:19;32.38;;;6.60;;
33413;SDS011;60055;41.884;12.534;2023-01-09T01:49:48;28.05;;;5.82;;
33413;SDS011;60055;41.884;12.534;2023-01-09T01:52:18;24.80;;;5.72;;
33413;SDS011;60055;41.884;12.534;2023-01-09T01:54:44;33.17;;;6.80;;
33413;SDS011;60055;41.884;12.534;2023-01-09T01:57:11;24.00;;;5.88;;
33413;SDS011;60055;41.884;12.534;2023-01-09T01:59:38;28.05;;;6.30;;
33413;SDS011;60055;41.884;12.534;2023-01-09T02:02:07;23.98;;;5.80;;
33413;SDS011;60055;41.884;12.534;2023-01-09T02:04:34;25.13;;;5.50;;
33413;SDS011;60055;41.884;12.534;2023-01-09T02:07:06;21.65;;;5.57;;
33413;SDS011;60055;41.884;12.534;2023-01-09T02:09:34;24.02;;;5.50;;
33413;SDS011;60055;41.884;12.534;2023-01-09T02:12:12;30.23;;;5.75;;
33413;SDS011;60055;41.884;12.534;2023-01-09T02:14:44;31.40;;;5.72;;
33413;SDS011;60055;41.884;12.534;2023-01-09T02:17:23;28.23;;;5.25;;
33413;SDS011;60055;41.884;12.534;2023-01-09T02:30:54;25.40;;;7.00;;
33413;SDS011;60055;41.884;12.534;2023-01-09T02:34:01;30.30;;;7.50;;
33413;SDS011;60055;41.884;12.534;2023-01-09T02:39:55;37.97;;;8.35;;
33413;SDS011;60055;41.884;12.534;2023-01-09T02:42:31;29.30;;;7.72;;
33413;SDS011;60055;41.884;12.534;2023-01-09T02:44:58;37.15;;;8.82;;
33413;SDS011;60055;41.884;12.534;2023-01-09T02:49:49;34.97;;;8.98;;
33413;SDS011;60055;41.884;12.534;2023-01-09T03:08:37;45.80;;;11.37;;
33413;SDS011;60055;41.884;12.534;2023-01-09T03:11:05;36.63;;;10.43;;
33413;SDS011;60055;41.884;12.534;2023-01-09T03:13:35;41.03;;;10.70;;
33413;SDS011;60055;41.884;12.534;2023-01-09T03:16:07;49.00;;;11.55;;
33413;SDS011;60055;41.884;12.534;2023-01-09T03:18:35;37.63;;;10.88;;
33413;SDS011;60055;41.884;12.534;2023-01-09T03:21:05;39.60;;;11.75;;
33413;SDS011;60055;41.884;12.534;2023-01-09T03:23:49;46.15;;;11.40;;
33413;SDS011;60055;41.884;12.534;2023-01-09T03:26:17;50.55;;;12.20;;
33413;SDS011;60055;41.884;12.534;2023-01-09T03:28:45;42.80;;;11.35;;
33413;SDS011;60055;41.884;12.534;2023-01-09T03:31:11;41.00;;;11.70;;
33413;SDS011;60055;41.884;12.534;2023-01-09T03:33:39;44.47;;;12.10;;
33413;SDS011;60055;41.884;12.534;2023-01-09T03:36:05;52.30;;;12.40;;
33413;SDS011;60055;41.884;12.534;2023-01-09T03:38:31;39.20;;;11.68;;
33413;SDS011;60055;41.884;12.534;2023-01-09T03:40:57;53.83;;;11.98;;
33413;SDS011;60055;41.884;12.534;2023-01-09T03:43:23;49.78;;;11.57;;
33413;SDS011;60055;41.884;12.534;2023-01-09T03:45:50;48.72;;;11.82;;
33413;SDS011;60055;41.884;12.534;2023-01-09T03:48:16;47.78;;;11.65;;
33413;SDS011;60055;41.884;12.534;2023-01-09T03:50:42;51.65;;;12.18;;
33413;SDS011;60055;41.884;12.534;2023-01-09T03:53:10;46.45;;;11.48;;
33413;SDS011;60055;41.884;12.534;2023-01-09T03:55:37;51.78;;;10.95;;
33413;SDS011;60055;41.884;12.534;2023-01-09T03:58:13;58.38;;;11.73;;
33413;SDS011;60055;41.884;12.534;2023-01-09T04:00:43;46.88;;;11.23;;
33413;SDS011;60055;41.884;12.534;2023-01-09T04:03:13;43.15;;;11.73;;
33413;SDS011;60055;41.884;12.534;2023-01-09T04:05:42;54.30;;;11.20;;
33413;SDS011;60055;41.884;12.534;2023-01-09T04:08:11;52.72;;;11.63;;
33413;SDS011;60055;41.884;12.534;2023-01-09T04:10:37;49.42;;;11.32;;
33413;SDS011;60055;41.884;12.534;2023-01-09T04:13:03;41.85;;;11.35;;
33413;SDS011;60055;41.884;12.534;2023-01-09T04:15:29;43.53;;;11.13;;
33413;SDS011;60055;41.884;12.534;2023-01-09T04:17:54;45.10;;;11.07;;
33413;SDS011;60055;41.884;12.534;2023-01-09T04:20:20;52.83;;;10.85;;
33413;SDS011;60055;41.884;12.534;2023-01-09T04:22:46;48.67;;;10.98;;
33413;SDS011;60055;41.884;12.534;2023-01-09T04:25:12;53.25;;;10.98;;
33413;SDS011;60055;41.884;12.534;2023-01-09T04:27:39;51.13;;;10.88;;
33413;SDS011;60055;41.884;12.534;2023-01-09T04:30:04;50.90;;;10.95;;
33413;SDS011;60055;41.884;12.534;2023-01-09T04:32:30;59.72;;;10.88;;
33413;SDS011;60055;41.884;12.534;2023-01-09T04:34:56;47.42;;;10.57;;
33413;SDS011;60055;41.884;12.534;2023-01-09T04:37:22;47.95;;;10.38;;
33413;SDS011;60055;41.884;12.534;2023-01-09T04:39:48;46.90;;;10.45;;
33413;SDS011;60055;41.884;12.534;2023-01-09T04:42:15;42.78;;;10.25;;
33413;SDS011;60055;41.884;12.534;2023-01-09T04:44:41;50.47;;;10.95;;
33413;SDS011;60055;41.884;12.534;2023-01-09T04:47:08;41.45;;;10.30;;
33413;SDS011;60055;41.884;12.534;2023-01-09T04:49:34;50.60;;;11.18;;
33413;SDS011;60055;41.884;12.534;2023-01-09T04:51:59;49.50;;;10.00;;
33413;SDS011;60055;41.884;12.534;2023-01-09T04:54:25;49.53;;;10.98;;
33413;SDS011;60055;41.884;12.534;2023-01-09T04:56:51;52.67;;;10.45;;
33413;SDS011;60055;41.884;12.534;2023-01-09T04:59:17;51.08;;;10.68;;
33413;SDS011;60055;41.884;12.534;2023-01-09T05:01:43;49.92;;;10.77;;
33413;SDS011;60055;41.884;12.534;2023-01-09T05:04:08;47.88;;;10.85;;
33413;SDS011;60055;41.884;12.534;2023-01-09T05:06:35;49.97;;;11.77;;
33413;SDS011;60055;41.884;12.534;2023-01-09T05:09:01;51.85;;;11.40;;
33413;SDS011;60055;41.884;12.534;2023-01-09T05:11:27;49.55;;;11.18;;
33413;SDS011;60055;41.884;12.534;2023-01-09T05:13:52;53.15;;;10.93;;
33413;SDS011;60055;41.884;12.534;2023-01-09T05:16:19;42.80;;;10.25;;
33413;SDS011;60055;41.884;12.534;2023-01-09T05:18:45;52.80;;;10.63;;
33413;SDS011;60055;41.884;12.534;2023-01-09T05:21:11;48.33;;;10.50;;
33413;SDS011;60055;41.884;12.534;2023-01-09T05:23:37;50.13;;;10.35;;
33413;SDS011;60055;41.884;12.534;2023-01-09T05:26:03;49.20;;;10.27;;
33413;SDS011;60055;41.884;12.534;2023-01-09T05:28:29;47.78;;;10.63;;
33413;SDS011;60055;41.884;12.534;2023-01-09T05:30:56;56.40;;;11.40;;
33413;SDS011;60055;41.884;12.534;2023-01-09T05:33:22;46.33;;;9.35;;
33413;SDS011;60055;41.884;12.534;2023-01-09T05:35:48;52.20;;;10.40;;
33413;SDS011;60055;41.884;12.534;2023-01-09T05:38:13;48.28;;;10.48;;
33413;SDS011;60055;41.884;12.534;2023-01-09T05:40:40;52.83;;;11.13;;
33413;SDS011;60055;41.884;12.534;2023-01-09T05:43:05;55.45;;;10.18;;
33413;SDS011;60055;41.884;12.534;2023-01-09T05:45:31;46.20;;;10.57;;
33413;SDS011;60055;41.884;12.534;2023-01-09T05:47:57;54.15;;;9.57;;
33413;SDS011;60055;41.884;12.534;2023-01-09T05:50:22;49.80;;;10.25;;
33413;SDS011;60055;41.884;12.534;2023-01-09T05:52:48;52.15;;;10.57;;
33413;SDS011;60055;41.884;12.534;2023-01-09T05:55:15;57.33;;;10.00;;
33413;SDS011;60055;41.884;12.534;2023-01-09T05:57:40;47.67;;;10.73;;
33413;SDS011;60055;41.884;12.534;2023-01-09T06:00:06;53.42;;;10.00;;
33413;SDS011;60055;41.884;12.534;2023-01-09T06:02:32;56.63;;;11.00;;
33413;SDS011;60055;41.884;12.534;2023-01-09T06:04:59;57.20;;;11.13;;
33413;SDS011;60055;41.884;12.534;2023-01-09T06:07:24;44.33;;;9.68;;
33413;SDS011;60055;41.884;12.534;2023-01-09T06:09:50;47.85;;;10.50;;
33413;SDS011;60055;41.884;12.534;2023-01-09T06:12:16;53.88;;;10.30;;
33413;SDS011;60055;41.884;12.534;2023-01-09T06:14:42;58.60;;;11.50;;
33413;SDS011;60055;41.884;12.534;2023-01-09T06:17:09;50.80;;;10.30;;
33413;SDS011;60055;41.884;12.534;2023-01-09T06:19:35;50.22;;;9.98;;
33413;SDS011;60055;41.884;12.534;2023-01-09T06:22:00;51.22;;;10.40;;
33413;SDS011;60055;41.884;12.534;2023-01-09T06:24:28;46.90;;;10.15;;
33413;SDS011;60055;41.884;12.534;2023-01-09T06:26:54;57.13;;;10.93;;
33413;SDS011;60055;41.884;12.534;2023-01-09T06:29:19;48.85;;;10.90;;
33413;SDS011;60055;41.884;12.534;2023-01-09T06:31:45;48.20;;;10.85;;
33413;SDS011;60055;41.884;12.534;2023-01-09T06:34:15;43.00;;;10.30;;
33413;SDS011;60055;41.884;12.534;2023-01-09T06:36:41;40.55;;;10.57;;
33413;SDS011;60055;41.884;12.534;2023-01-09T06:39:07;42.30;;;10.68;;
33413;SDS011;60055;41.884;12.534;2023-01-09T06:41:32;36.47;;;10.93;;
33413;SDS011;60055;41.884;12.534;2023-01-09T06:43:59;41.20;;;9.23;;
33413;SDS011;60055;41.884;12.534;2023-01-09T06:46:25;43.25;;;9.27;;
33413;SDS011;60055;41.884;12.534;2023-01-09T06:48:51;39.45;;;9.48;;
33413;SDS011;60055;41.884;12.534;2023-01-09T06:51:17;50.53;;;9.82;;
33413;SDS011;60055;41.884;12.534;2023-01-09T06:53:45;48.88;;;10.50;;
33413;SDS011;60055;41.884;12.534;2023-01-09T06:56:10;51.40;;;10.20;;
33413;SDS011;60055;41.884;12.534;2023-01-09T06:58:36;48.08;;;10.00;;
33413;SDS011;60055;41.884;12.534;2023-01-09T07:01:02;48.25;;;9.85;;
33413;SDS011;60055;41.884;12.534;2023-01-09T07:03:27;54.90;;;10.18;;
33413;SDS011;60055;41.884;12.534;2023-01-09T07:05:56;49.35;;;9.75;;
33413;SDS011;60055;41.884;12.534;2023-01-09T07:08:27;45.00;;;9.20;;
33413;SDS011;60055;41.884;12.534;2023-01-09T07:10:54;51.33;;;9.93;;
33413;SDS011;60055;41.884;12.534;2023-01-09T07:13:19;50.75;;;9.68;;
33413;SDS011;60055;41.884;12.534;2023-01-09T07:15:47;53.20;;;9.82;;
33413;SDS011;60055;41.884;12.534;2023-01-09T07:18:14;49.33;;;9.73;;
33413;SDS011;60055;41.884;12.534;2023-01-09T07:20:39;55.85;;;9.90;;
33413;SDS011;60055;41.884;12.534;2023-01-09T07:23:06;53.50;;;10.18;;
33413;SDS011;60055;41.884;12.534;2023-01-09T07:25:38;50.70;;;9.93;;
33413;SDS011;60055;41.884;12.534;2023-01-09T07:28:06;53.25;;;9.80;;
33413;SDS011;60055;41.884;12.534;2023-01-09T07:30:32;55.22;;;10.55;;
33413;SDS011;60055;41.884;12.534;2023-01-09T07:32:57;61.97;;;10.63;;
33413;SDS011;60055;41.884;12.534;2023-01-09T07:35:23;62.25;;;10.70;;
33413;SDS011;60055;41.884;12.534;2023-01-09T07:37:49;51.75;;;10.77;;
33413;SDS011;60055;41.884;12.534;2023-01-09T07:40:16;59.75;;;11.13;;
33413;SDS011;60055;41.884;12.534;2023-01-09T07:42:41;68.30;;;12.10;;
33413;SDS011;60055;41.884;12.534;2023-01-09T07:45:09;57.70;;;10.75;;
33413;SDS011;60055;41.884;12.534;2023-01-09T07:47:40;61.95;;;10.95;;
33413;SDS011;60055;41.884;12.534;2023-01-09T07:50:06;59.92;;;10.90;;
33413;SDS011;60055;41.884;12.534;2023-01-09T07:52:38;63.55;;;12.63;;
33413;SDS011;60055;41.884;12.534;2023-01-09T07:55:05;65.25;;;11.10;;
33413;SDS011;60055;41.884;12.534;2023-01-09T07:57:31;58.08;;;10.88;;
33413;SDS011;60055;41.884;12.534;2023-01-09T07:59:57;59.88;;;10.80;;
33413;SDS011;60055;41.884;12.534;2023-01-09T08:02:24;50.03;;;10.48;;
33413;SDS011;60055;41.884;12.534;2023-01-09T08:04:51;54.17;;;10.15;;
33413;SDS011;60055;41.884;12.534;2023-01-09T08:07:33;50.22;;;9.48;;
33413;SDS011;60055;41.884;12.534;2023-01-09T08:10:03;51.80;;;10.43;;
33413;SDS011;60055;41.884;12.534;2023-01-09T08:12:35;55.95;;;9.55;;
33413;SDS011;60055;41.884;12.534;2023-01-09T08:15:01;50.92;;;9.68;;
33413;SDS011;60055;41.884;12.534;2023-01-09T08:17:44;58.83;;;11.43;;
33413;SDS011;60055;41.884;12.534;2023-01-09T08:20:27;50.33;;;10.52;;
33413;SDS011;60055;41.884;12.534;2023-01-09T08:23:08;53.30;;;9.52;;
33413;SDS011;60055;41.884;12.534;2023-01-09T08:25:35;60.33;;;10.18;;
33413;SDS011;60055;41.884;12.534;2023-01-09T08:28:17;55.30;;;9.77;;
33413;SDS011;60055;41.884;12.534;2023-01-09T08:30:59;60.20;;;10.90;;
33413;SDS011;60055;41.884;12.534;2023-01-09T08:33:27;70.43;;;11.50;;
33413;SDS011;60055;41.884;12.534;2023-01-09T08:36:01;63.47;;;10.20;;
33413;SDS011;60055;41.884;12.534;2023-01-09T08:38:27;70.00;;;10.50;;
33413;SDS011;60055;41.884;12.534;2023-01-09T08:40:55;60.58;;;10.20;;
33413;SDS011;60055;41.884;12.534;2023-01-09T08:43:54;74.63;;;11.27;;
33413;SDS011;60055;41.884;12.534;2023-01-09T08:46:39;63.03;;;10.15;;
33413;SDS011;60055;41.884;12.534;2023-01-09T08:49:28;60.80;;;9.40;;
33413;SDS011;60055;41.884;12.534;2023-01-09T08:51:59;58.72;;;9.25;;
33413;SDS011;60055;41.884;12.534;2023-01-09T08:54:24;64.72;;;9.77;;
33413;SDS011;60055;41.884;12.534;2023-01-09T08:56:50;55.63;;;9.10;;
33413;SDS011;60055;41.884;12.534;2023-01-09T08:59:33;58.65;;;8.70;;
33413;SDS011;60055;41.884;12.534;2023-01-09T09:01:59;46.72;;;7.93;;
33413;SDS011;60055;41.884;12.534;2023-01-09T09:04:32;53.60;;;8.52;;
33413;SDS011;60055;41.884;12.534;2023-01-09T09:07:00;60.13;;;8.48;;
33413;SDS011;60055;41.884;12.534;2023-01-09T09:09:30;45.97;;;8.18;;
33413;SDS011;60055;41.884;12.534;2023-01-09T09:11:59;47.53;;;7.38;;
33413;SDS011;60055;41.884;12.534;2023-01-09T09:14:24;44.55;;;7.32;;
33413;SDS011;60055;41.884;12.534;2023-01-09T09:17:17;44.92;;;6.97;;
33413;SDS011;60055;41.884;12.534;2023-01-09T09:19:42;49.30;;;8.77;;
33413;SDS011;60055;41.884;12.534;2023-01-09T09:22:11;50.90;;;8.55;;
33413;SDS011;60055;41.884;12.534;2023-01-09T09:24:41;47.63;;;7.93;;
33413;SDS011;60055;41.884;12.534;2023-01-09T09:27:07;50.97;;;7.82;;
33413;SDS011;60055;41.884;12.534;2023-01-09T09:29:50;53.63;;;8.88;;
33413;SDS011;60055;41.884;12.534;2023-01-09T09:32:23;52.03;;;8.02;;
33413;SDS011;60055;41.884;12.534;2023-01-09T09:34:49;53.70;;;9.15;;
33413;SDS011;60055;41.884;12.534;2023-01-09T09:37:15;55.67;;;9.30;;
33413;SDS011;60055;41.884;12.534;2023-01-09T09:39:57;50.13;;;8.05;;
33413;SDS011;60055;41.884;12.534;2023-01-09T09:42:40;53.05;;;8.77;;
33413;SDS011;60055;41.884;12.534;2023-01-09T09:54:22;53.78;;;8.00;;
33413;SDS011;60055;41.884;12.534;2023-01-09T09:56:55;54.13;;;8.00;;
33413;SDS011;60055;41.884;12.534;2023-01-09T09:59:39;46.92;;;9.02;;
33413;SDS011;60055;41.884;12.534;2023-01-09T10:02:31;49.42;;;7.95;;
33413;SDS011;60055;41.884;12.534;2023-01-09T10:05:12;46.28;;;8.63;;
33413;SDS011;60055;41.884;12.534;2023-01-09T10:07:59;49.33;;;7.70;;
33413;SDS011;60055;41.884;12.534;2023-01-09T10:10:39;48.72;;;6.93;;
33413;SDS011;60055;41.884;12.534;2023-01-09T10:13:18;48.45;;;6.95;;
33413;SDS011;60055;41.884;12.534;2023-01-09T10:16:24;43.15;;;6.97;;
33413;SDS011;60055;41.884;12.534;2023-01-09T10:25:07;32.33;;;5.13;;
33413;SDS011;60055;41.884;12.534;2023-01-09T10:34:02;38.28;;;4.15;;
33413;SDS011;60055;41.884;12.534;2023-01-09T10:37:10;22.90;;;4.22;;
33413;SDS011;60055;41.884;12.534;2023-01-09T10:39:55;28.27;;;4.40;;
33413;SDS011;60055;41.884;12.534;2023-01-09T10:46:09;31.45;;;4.30;;
33413;SDS011;60055;41.884;12.534;2023-01-09T10:48:47;26.08;;;3.90;;
33413;SDS011;60055;41.884;12.534;2023-01-09T10:51:23;25.17;;;4.47;;
33413;SDS011;60055;41.884;12.534;2023-01-09T10:54:02;34.90;;;5.32;;
33413;SDS011;60055;41.884;12.534;2023-01-09T10:56:36;16.88;;;4.53;;
33413;SDS011;60055;41.884;12.534;2023-01-09T10:59:06;24.35;;;4.88;;
33413;SDS011;60055;41.884;12.534;2023-01-09T11:01:35;28.60;;;4.80;;
33413;SDS011;60055;41.884;12.534;2023-01-09T11:12:44;32.70;;;4.75;;
33413;SDS011;60055;41.884;12.534;2023-01-09T11:15:57;31.98;;;4.85;;
33413;SDS011;60055;41.884;12.534;2023-01-09T11:19:11;30.95;;;5.20;;
33413;SDS011;60055;41.884;12.534;2023-01-09T11:21:47;32.45;;;5.18;;
33413;SDS011;60055;41.884;12.534;2023-01-09T11:25:00;35.90;;;5.03;;
33413;SDS011;60055;41.884;12.534;2023-01-09T11:27:39;39.45;;;5.50;;
33413;SDS011;60055;41.884;12.534;2023-01-09T11:30:20;37.00;;;5.65;;
33413;SDS011;60055;41.884;12.534;2023-01-09T11:36:20;44.17;;;6.63;;
33413;SDS011;60055;41.884;12.534;2023-01-09T11:38:53;44.60;;;6.97;;
33413;SDS011;60055;41.884;12.534;2023-01-09T11:47:45;42.28;;;6.32;;
33413;SDS011;60055;41.884;12.534;2023-01-09T11:50:17;35.67;;;5.75;;
33413;SDS011;60055;41.884;12.534;2023-01-09T11:55:43;21.83;;;3.42;;
33413;SDS011;60055;41.884;12.534;2023-01-09T13:36:50;12.10;;;3.90;;
33413;SDS011;60055;41.884;12.534;2023-01-09T13:45:33;14.20;;;3.90;;
33413;SDS011;60055;41.884;12.534;2023-01-09T13:50:46;15.95;;;4.97;;
33413;SDS011;60055;41.884;12.534;2023-01-09T14:04:40;15.15;;;4.28;;
33413;SDS011;60055;41.884;12.534;2023-01-09T14:14:19;17.50;;;3.65;;
33413;SDS011;60055;41.884;12.534;2023-01-09T14:30:32;25.67;;;5.85;;
33413;SDS011;60055;41.884;12.534;2023-01-09T14:33:38;23.75;;;7.90;;
33413;SDS011;60055;41.884;12.534;2023-01-09T14:36:48;22.65;;;6.18;;
33413;SDS011;60055;41.884;12.534;2023-01-09T14:39:15;23.15;;;5.68;;
33413;SDS011;60055;41.884;12.534;2023-01-09T14:41:49;23.15;;;6.05;;
33413;SDS011;60055;41.884;12.534;2023-01-09T14:44:33;19.48;;;4.97;;
33413;SDS011;60055;41.884;12.534;2023-01-09T14:52:54;24.33;;;4.22;;
33413;SDS011;60055;41.884;12.534;2023-01-09T15:00:43;34.28;;;4.93;;
33413;SDS011;60055;41.884;12.534;2023-01-09T15:03:15;30.90;;;5.28;;
33413;SDS011;60055;41.884;12.534;2023-01-09T15:05:46;29.13;;;5.38;;
33413;SDS011;60055;41.884;12.534;2023-01-09T15:08:27;34.90;;;5.38;;
33413;SDS011;60055;41.884;12.534;2023-01-09T15:10:56;34.75;;;7.32;;
33413;SDS011;60055;41.884;12.534;2023-01-09T15:13:34;42.47;;;5.80;;
33413;SDS011;60055;41.884;12.534;2023-01-09T15:16:29;34.90;;;6.55;;
33413;SDS011;60055;41.884;12.534;2023-01-09T15:18:59;35.63;;;6.60;;
33413;SDS011;60055;41.884;12.534;2023-01-09T15:21:30;34.35;;;5.80;;
33413;SDS011;60055;41.884;12.534;2023-01-09T15:26:53;32.30;;;6.05;;
33413;SDS011;60055;41.884;12.534;2023-01-09T15:29:25;34.45;;;6.07;;
33413;SDS011;60055;41.884;12.534;2023-01-09T15:31:53;42.92;;;6.22;;
33413;SDS011;60055;41.884;12.534;2023-01-09T15:34:38;32.65;;;6.13;;
33413;SDS011;60055;41.884;12.534;2023-01-09T15:40:15;41.67;;;6.68;;
33413;SDS011;60055;41.884;12.534;2023-01-09T15:42:49;36.00;;;5.97;;
33413;SDS011;60055;41.884;12.534;2023-01-09T15:45:28;35.53;;;5.75;;
33413;SDS011;60055;41.884;12.534;2023-01-09T15:48:43;40.30;;;6.63;;
33413;SDS011;60055;41.884;12.534;2023-01-09T15:51:11;33.53;;;8.55;;
33413;SDS011;60055;41.884;12.534;2023-01-09T15:53:45;41.08;;;8.40;;
33413;SDS011;60055;41.884;12.534;2023-01-09T15:58:52;31.27;;;6.25;;
33413;SDS011;60055;41.884;12.534;2023-01-09T16:01:31;41.50;;;6.28;;
33413;SDS011;60055;41.884;12.534;2023-01-09T16:04:15;39.47;;;6.72;;
33413;SDS011;60055;41.884;12.534;2023-01-09T16:06:48;42.22;;;7.32;;
33413;SDS011;60055;41.884;12.534;2023-01-09T16:09:27;39.22;;;6.15;;
33413;SDS011;60055;41.884;12.534;2023-01-09T16:12:01;32.15;;;5.55;;
33413;SDS011;60055;41.884;12.534;2023-01-09T16:14:37;36.65;;;6.20;;
33413;SDS011;60055;41.884;12.534;2023-01-09T16:17:06;36.22;;;5.55;;
33413;SDS011;60055;41.884;12.534;2023-01-09T16:22:21;34.38;;;7.30;;
33413;SDS011;60055;41.884;12.534;2023-01-09T16:25:01;37.65;;;5.75;;
33413;SDS011;60055;41.884;12.534;2023-01-09T16:31:06;32.90;;;5.18;;
33413;SDS011;60055;41.884;12.534;2023-01-09T16:33:47;35.42;;;6.90;;
33413;SDS011;60055;41.884;12.534;2023-01-09T16:36:22;24.58;;;5.72;;
33413;SDS011;60055;41.884;12.534;2023-01-09T16:38:53;22.35;;;5.00;;
33413;SDS011;60055;41.884;12.534;2023-01-09T16:41:32;22.52;;;4.95;;
33413;SDS011;60055;41.884;12.534;2023-01-09T16:44:24;23.67;;;5.32;;
33413;SDS011;60055;41.884;12.534;2023-01-09T16:47:31;22.40;;;5.28;;
33413;SDS011;60055;41.884;12.534;2023-01-09T16:49:57;20.98;;;4.03;;
33413;SDS011;60055;41.884;12.534;2023-01-09T16:52:38;19.08;;;3.63;;
33413;SDS011;60055;41.884;12.534;2023-01-09T16:55:12;15.82;;;5.10;;
33413;SDS011;60055;41.884;12.534;2023-01-09T16:57:40;19.55;;;5.38;;
33413;SDS011;60055;41.884;12.534;2023-01-09T17:00:19;22.33;;;3.92;;
33413;SDS011;60055;41.884;12.534;2023-01-09T17:02:49;20.23;;;3.78;;
33413;SDS011;60055;41.884;12.534;2023-01-09T17:05:20;19.38;;;3.70;;
33413;SDS011;60055;41.884;12.534;2023-01-09T17:07:46;14.77;;;3.10;;
33413;SDS011;60055;41.884;12.534;2023-01-09T17:10:17;20.73;;;3.85;;
33413;SDS011;60055;41.884;12.534;2023-01-09T17:12:51;18.65;;;3.85;;
33413;SDS011;60055;41.884;12.534;2023-01-09T17:15:44;19.45;;;4.28;;
33413;SDS011;60055;41.884;12.534;2023-01-09T17:18:31;14.30;;;3.50;;
33413;SDS011;60055;41.884;12.534;2023-01-09T17:20:57;15.73;;;4.20;;
33413;SDS011;60055;41.884;12.534;2023-01-09T17:23:26;17.80;;;4.40;;
33413;SDS011;60055;41.884;12.534;2023-01-09T17:26:13;20.25;;;6.43;;
33413;SDS011;60055;41.884;12.534;2023-01-09T17:29:02;19.45;;;4.82;;
33413;SDS011;60055;41.884;12.534;2023-01-09T17:31:32;18.02;;;4.43;;
33413;SDS011;60055;41.884;12.534;2023-01-09T17:34:18;20.27;;;4.80;;
33413;SDS011;60055;41.884;12.534;2023-01-09T17:37:03;20.33;;;4.30;;
33413;SDS011;60055;41.884;12.534;2023-01-09T17:39:29;21.08;;;4.80;;
33413;SDS011;60055;41.884;12.534;2023-01-09T17:41:55;17.42;;;4.50;;
33413;SDS011;60055;41.884;12.534;2023-01-09T17:44:29;23.80;;;5.18;;
33413;SDS011;60055;41.884;12.534;2023-01-09T17:47:02;22.55;;;7.90;;
33413;SDS011;60055;41.884;12.534;2023-01-09T17:49:39;22.15;;;7.13;;
33413;SDS011;60055;41.884;12.534;2023-01-09T17:52:06;30.15;;;7.35;;
33413;SDS011;60055;41.884;12.534;2023-01-09T17:54:32;24.52;;;8.80;;
33413;SDS011;60055;41.884;12.534;2023-01-09T17:56:57;25.70;;;7.85;;
33413;SDS011;60055;41.884;12.534;2023-01-09T17:59:29;28.75;;;7.68;;
33413;SDS011;60055;41.884;12.534;2023-01-09T18:02:14;29.85;;;7.72;;
33413;SDS011;60055;41.884;12.534;2023-01-09T18:04:41;28.58;;;6.72;;
33413;SDS011;60055;41.884;12.534;2023-01-09T18:07:08;25.95;;;6.78;;
33413;SDS011;60055;41.884;12.534;2023-01-09T18:09:43;24.45;;;4.82;;
33413;SDS011;60055;41.884;12.534;2023-01-09T18:12:18;23.88;;;6.22;;
33413;SDS011;60055;41.884;12.534;2023-01-09T18:14:51;24.70;;;7.00;;
33413;SDS011;60055;41.884;12.534;2023-01-09T18:17:17;26.77;;;6.05;;
33413;SDS011;60055;41.884;12.534;2023-01-09T18:19:43;32.45;;;9.75;;
33413;SDS011;60055;41.884;12.534;2023-01-09T18:22:10;49.78;;;20.45;;
33413;SDS011;60055;41.884;12.534;2023-01-09T18:24:49;38.15;;;8.25;;
33413;SDS011;60055;41.884;12.534;2023-01-09T18:27:43;34.90;;;5.90;;
33413;SDS011;60055;41.884;12.534;2023-01-09T18:30:10;30.77;;;6.05;;
33413;SDS011;60055;41.884;12.534;2023-01-09T18:32:42;28.13;;;6.22;;
33413;SDS011;60055;41.884;12.534;2023-01-09T18:35:40;36.03;;;7.30;;
33413;SDS011;60055;41.884;12.534;2023-01-09T18:40:37;32.20;;;6.20;;
33413;SDS011;60055;41.884;12.534;2023-01-09T18:43:03;30.10;;;6.45;;
33413;SDS011;60055;41.884;12.534;2023-01-09T18:45:31;42.83;;;6.88;;
33413;SDS011;60055;41.884;12.534;2023-01-09T18:47:57;31.38;;;7.43;;
33413;SDS011;60055;41.884;12.534;2023-01-09T18:50:26;32.88;;;6.53;;
33413;SDS011;60055;41.884;12.534;2023-01-09T18:52:52;33.35;;;6.07;;